Time;durP1;ratioP1;P1;durP2;ratioP2;P2;SDS_P1;SDS_P2;PMS_P1;PMS_P2;Temp;Humidity;BMP_temperature;BMP_pressure;BME280_temperature;BME280_humidity;BME280_pressure;Samples;Min_cycle;Max_cycle;Signal;HPM_P1;HPM_P2
2022/07/27 00:01:42;;;;;;;0.53;0.53;;;;;;;;;;5074801;28;20277;-82
2022/07/27 00:04:18;;;;;;;0.40;0.40;;;;;;;;;;5073765;28;20267;-82
2022/07/27 00:06:49;;;;;;;3.00;0.83;;;;;;;;;;5074993;28;20281;-82
2022/07/27 00:09:18;;;;;;;0.40;0.40;;;;;;;;;;5077909;28;20259;-81
2022/07/27 00:11:46;;;;;;;0.30;0.30;;;;;;;;;;5074833;28;20197;-82
2022/07/27 00:14:15;;;;;;;0.30;0.30;;;;;;;;;;5073561;28;20295;-82
2022/07/27 00:16:43;;;;;;;0.30;0.30;;;;;;;;;;5073679;28;20201;-83
2022/07/27 00:19:12;;;;;;;0.40;0.40;;;;;;;;;;5073398;28;20205;-82
2022/07/27 00:21:41;;;;;;;4.70;1.50;;;;;;;;;;5073702;28;20229;-82
2022/07/27 00:24:15;;;;;;;0.40;0.40;;;;;;;;;;5087267;28;20255;-83
2022/07/27 00:26:43;;;;;;;0.40;0.40;;;;;;;;;;5081161;28;20225;-83
2022/07/27 00:29:12;;;;;;;0.40;0.40;;;;;;;;;;5076807;28;20206;-81
2022/07/27 00:31:41;;;;;;;0.40;0.40;;;;;;;;;;5085225;28;20205;-83
2022/07/27 00:34:09;;;;;;;0.40;0.40;;;;;;;;;;5076314;28;20260;-82
2022/07/27 00:36:38;;;;;;;0.40;0.40;;;;;;;;;;5089730;28;20253;-82
2022/07/27 00:39:06;;;;;;;0.40;0.40;;;;;;;;;;5081607;28;20197;-82
2022/07/27 00:41:37;;;;;;;0.30;0.30;;;;;;;;;;5081356;28;20205;-82
2022/07/27 00:44:05;;;;;;;0.40;0.40;;;;;;;;;;5073941;28;20218;-82
2022/07/27 00:46:34;;;;;;;3.30;1.23;;;;;;;;;;5072327;28;20198;-82
2022/07/27 00:49:03;;;;;;;0.40;0.40;;;;;;;;;;5073078;28;20206;-82
2022/07/27 00:51:33;;;;;;;0.60;0.60;;;;;;;;;;5078023;28;20205;-82
2022/07/27 00:54:01;;;;;;;0.40;0.40;;;;;;;;;;5073825;28;20201;-82
2022/07/27 00:56:29;;;;;;;0.40;0.40;;;;;;;;;;5072882;28;20198;-82
2022/07/27 00:58:59;;;;;;;0.40;0.40;;;;;;;;;;5072633;28;20208;-82
2022/07/27 01:01:28;;;;;;;0.40;0.40;;;;;;;;;;5080106;28;20197;-82
2022/07/27 01:03:56;;;;;;;0.43;0.43;;;;;;;;;;5080356;28;20322;-82
2022/07/27 01:06:25;;;;;;;0.40;0.40;;;;;;;;;;5072902;28;20194;-81
2022/07/27 01:09:55;;;;;;;0.30;0.30;;;;;;;;;;5073620;28;20280;-81
2022/07/27 01:11:44;;;;;;;0.40;0.40;;;;;;;;;;5072725;28;20217;-82
2022/07/27 01:14:15;;;;;;;0.40;0.40;;;;;;;;;;5072916;28;20274;-82
2022/07/27 01:16:44;;;;;;;0.40;0.40;;;;;;;;;;5088396;28;20208;-81
2022/07/27 01:19:13;;;;;;;0.40;0.40;;;;;;;;;;5072762;28;20206;-82
2022/07/27 01:21:44;;;;;;;0.40;0.40;;;;;;;;;;5072594;28;20202;-82
2022/07/27 01:24:12;;;;;;;0.40;0.40;;;;;;;;;;5073141;28;20234;-81
2022/07/27 01:26:41;;;;;;;0.30;0.30;;;;;;;;;;5072695;28;20197;-82
2022/07/27 01:29:09;;;;;;;0.30;0.30;;;;;;;;;;5072277;28;20202;-83
2022/07/27 01:31:39;;;;;;;0.40;0.40;;;;;;;;;;5089309;28;20252;-82
2022/07/27 01:34:07;;;;;;;0.40;0.40;;;;;;;;;;5072396;28;20202;-82
2022/07/27 01:36:37;;;;;;;0.40;0.40;;;;;;;;;;5073234;28;20209;-82
2022/07/27 01:39:07;;;;;;;0.40;0.40;;;;;;;;;;5072217;28;20277;-82
2022/07/27 01:41:36;;;;;;;0.33;0.33;;;;;;;;;;5082124;28;20236;-82
2022/07/27 01:44:05;;;;;;;0.43;0.43;;;;;;;;;;5072170;28;20206;-82
2022/07/27 01:46:33;;;;;;;0.30;0.30;;;;;;;;;;5072336;28;20290;-82
2022/07/27 01:49:02;;;;;;;0.30;0.30;;;;;;;;;;5076449;28;20200;-82
2022/07/27 01:51:31;;;;;;;0.30;0.30;;;;;;;;;;5092201;28;20250;-83
2022/07/27 01:53:59;;;;;;;0.40;0.40;;;;;;;;;;5075073;28;20201;-82
2022/07/27 01:56:29;;;;;;;0.30;0.30;;;;;;;;;;5072198;28;20206;-82
2022/07/27 01:58:58;;;;;;;0.40;0.40;;;;;;;;;;5075846;28;20203;-82
2022/07/27 02:01:27;;;;;;;0.40;0.40;;;;;;;;;;5076061;28;20204;-82
2022/07/27 02:03:56;;;;;;;0.43;0.43;;;;;;;;;;5087428;28;20233;-82
2022/07/27 02:06:24;;;;;;;0.63;0.63;;;;;;;;;;5076427;28;20225;-82
2022/07/27 02:08:52;;;;;;;1.40;1.03;;;;;;;;;;5076184;28;20265;-82
2022/07/27 02:14:08;;;;;;;0.43;0.43;;;;;;;;;;5076587;28;20202;-82
2022/07/27 02:16:37;;;;;;;0.40;0.40;;;;;;;;;;5076225;28;20243;-82
2022/07/27 02:19:06;;;;;;;0.40;0.40;;;;;;;;;;5075766;28;20212;-82
2022/07/27 02:21:36;;;;;;;0.40;0.40;;;;;;;;;;5077311;28;20190;-82
2022/07/27 02:24:04;;;;;;;0.40;0.40;;;;;;;;;;5084729;28;20241;-82
2022/07/27 02:26:33;;;;;;;0.37;0.37;;;;;;;;;;5091199;28;20219;-83
2022/07/27 02:29:01;;;;;;;0.40;0.40;;;;;;;;;;5076019;28;20211;-83
2022/07/27 02:31:31;;;;;;;0.30;0.30;;;;;;;;;;5075475;28;20205;-82
2022/07/27 02:34:00;;;;;;;0.30;0.30;;;;;;;;;;5075347;28;20207;-82
2022/07/27 02:36:29;;;;;;;0.40;0.40;;;;;;;;;;5076589;28;20194;-82
2022/07/27 02:38:57;;;;;;;0.40;0.40;;;;;;;;;;5076400;28;20208;-82
2022/07/27 02:41:26;;;;;;;1.80;1.70;;;;;;;;;;5090143;28;20202;-82
2022/07/27 02:43:54;;;;;;;0.40;0.40;;;;;;;;;;5077916;28;20230;-82
2022/07/27 02:46:23;;;;;;;1.90;0.70;;;;;;;;;;5075065;28;20222;-83
2022/07/27 02:48:53;;;;;;;0.40;0.40;;;;;;;;;;5091905;28;20201;-82
2022/07/27 02:51:21;;;;;;;0.40;0.40;;;;;;;;;;5096534;28;20209;-83
2022/07/27 02:53:50;;;;;;;0.30;0.30;;;;;;;;;;5093857;28;20244;-82
2022/07/27 02:56:18;;;;;;;0.57;0.47;;;;;;;;;;5084595;28;20243;-82
2022/07/27 02:58:54;;;;;;;0.30;0.30;;;;;;;;;;5112489;28;20206;-82
2022/07/27 03:01:22;;;;;;;0.40;0.40;;;;;;;;;;5087279;28;20203;-82
2022/07/27 03:03:52;;;;;;;0.30;0.30;;;;;;;;;;5075179;28;20296;-82
2022/07/27 03:06:21;;;;;;;0.40;0.40;;;;;;;;;;5075340;28;20259;-82
2022/07/27 03:08:49;;;;;;;0.30;0.30;;;;;;;;;;5091150;28;20198;-82
2022/07/27 03:11:18;;;;;;;0.50;0.50;;;;;;;;;;5075547;28;20203;-82
2022/07/27 03:13:46;;;;;;;0.80;0.80;;;;;;;;;;5074880;28;20202;-82
2022/07/27 03:16:15;;;;;;;0.30;0.30;;;;;;;;;;5074466;28;20213;-82
2022/07/27 03:18:43;;;;;;;0.30;0.30;;;;;;;;;;5074718;28;20204;-82
2022/07/27 03:21:13;;;;;;;0.30;0.30;;;;;;;;;;5074991;28;20290;-82
2022/07/27 03:23:41;;;;;;;0.40;0.40;;;;;;;;;;5074776;28;20233;-82
2022/07/27 03:26:10;;;;;;;0.37;0.37;;;;;;;;;;5074617;28;20209;-82
2022/07/27 03:28:38;;;;;;;0.37;0.37;;;;;;;;;;5075785;28;20205;-82
2022/07/27 03:31:07;;;;;;;0.40;0.40;;;;;;;;;;5085837;28;20198;-83
2022/07/27 03:33:36;;;;;;;0.40;0.40;;;;;;;;;;5074583;28;20201;-83
2022/07/27 03:36:04;;;;;;;2.87;2.67;;;;;;;;;;5075315;28;20213;-83
2022/07/27 03:38:34;;;;;;;0.40;0.40;;;;;;;;;;5094512;28;20208;-83
2022/07/27 03:41:05;;;;;;;0.30;0.30;;;;;;;;;;5086286;28;20206;-82
2022/07/27 03:43:34;;;;;;;0.30;0.30;;;;;;;;;;5075134;28;20200;-83
2022/07/27 03:46:02;;;;;;;2.20;1.00;;;;;;;;;;5078741;28;20218;-83
2022/07/27 03:48:31;;;;;;;0.53;0.53;;;;;;;;;;5074005;28;20202;-82
2022/07/27 03:50:59;;;;;;;0.40;0.40;;;;;;;;;;5075056;28;20230;-83
2022/07/27 03:53:28;;;;;;;0.63;0.63;;;;;;;;;;5083700;28;20309;-83
2022/07/27 03:55:58;;;;;;;0.30;0.30;;;;;;;;;;5078836;28;20284;-83
2022/07/27 03:58:26;;;;;;;0.30;0.30;;;;;;;;;;5082537;28;20210;-82
2022/07/27 04:00:55;;;;;;;0.30;0.30;;;;;;;;;;5088526;28;20220;-82
2022/07/27 04:03:23;;;;;;;1.20;1.13;;;;;;;;;;5081134;28;20220;-82
2022/07/27 04:05:52;;;;;;;0.30;0.30;;;;;;;;;;5087339;28;20221;-82
2022/07/27 04:08:21;;;;;;;0.30;0.30;;;;;;;;;;5074659;28;20224;-83
2022/07/27 04:10:49;;;;;;;0.40;0.40;;;;;;;;;;5086000;28;20217;-82
2022/07/27 04:13:20;;;;;;;0.30;0.30;;;;;;;;;;5078552;28;20296;-82
2022/07/27 04:15:49;;;;;;;0.30;0.30;;;;;;;;;;5085307;28;20221;-82
2022/07/27 04:18:18;;;;;;;0.40;0.40;;;;;;;;;;5074441;28;20206;-82
2022/07/27 04:20:46;;;;;;;0.30;0.30;;;;;;;;;;5074716;28;20205;-82
2022/07/27 04:23:15;;;;;;;0.40;0.40;;;;;;;;;;5074567;28;20226;-82
2022/07/27 04:25:44;;;;;;;0.40;0.40;;;;;;;;;;5074291;28;20234;-82
2022/07/27 04:28:12;;;;;;;0.33;0.33;;;;;;;;;;5088917;28;20207;-82
2022/07/27 04:30:42;;;;;;;0.30;0.30;;;;;;;;;;5073516;28;20202;-82
2022/07/27 04:33:10;;;;;;;0.40;0.40;;;;;;;;;;5088328;28;20225;-82
2022/07/27 04:35:41;;;;;;;0.40;0.40;;;;;;;;;;5073204;28;20218;-82
2022/07/27 04:38:10;;;;;;;0.40;0.40;;;;;;;;;;5087620;28;20203;-81
2022/07/27 04:40:38;;;;;;;0.40;0.40;;;;;;;;;;5073995;28;20228;-82
2022/07/27 04:43:07;;;;;;;0.40;0.40;;;;;;;;;;5081783;28;20198;-81
2022/07/27 04:45:36;;;;;;;0.40;0.40;;;;;;;;;;5087574;28;20198;-82
2022/07/27 04:48:07;;;;;;;0.40;0.40;;;;;;;;;;5083529;28;20221;-81
2022/07/27 04:50:39;;;;;;;0.30;0.30;;;;;;;;;;5077220;28;20204;-83
2022/07/27 04:53:09;;;;;;;3.03;2.93;;;;;;;;;;5073393;28;20229;-83
2022/07/27 04:55:37;;;;;;;0.30;0.30;;;;;;;;;;5072870;28;20206;-81
2022/07/27 04:58:06;;;;;;;0.40;0.40;;;;;;;;;;5073960;28;20270;-81
2022/07/27 05:00:34;;;;;;;0.50;0.50;;;;;;;;;;5073992;28;20240;-81
2022/07/27 05:03:03;;;;;;;0.30;0.30;;;;;;;;;;5093533;28;20208;-82
2022/07/27 05:05:33;;;;;;;0.40;0.40;;;;;;;;;;5090005;28;20247;-82
2022/07/27 05:08:02;;;;;;;0.40;0.40;;;;;;;;;;5075985;28;20213;-81
2022/07/27 05:10:31;;;;;;;0.87;0.50;;;;;;;;;;5074049;28;20232;-82
2022/07/27 05:12:59;;;;;;;0.50;0.50;;;;;;;;;;5072157;28;20207;-82
2022/07/27 05:15:29;;;;;;;0.50;0.50;;;;;;;;;;5085147;28;20201;-82
2022/07/27 05:18:17;;;;;;;0.50;0.50;;;;;;;;;;5073199;28;20201;-82
2022/07/27 05:20:47;;;;;;;0.60;0.60;;;;;;;;;;5083195;28;20242;-82
2022/07/27 05:23:17;;;;;;;0.63;0.63;;;;;;;;;;5073436;28;20201;-82
2022/07/27 05:25:46;;;;;;;3.13;1.43;;;;;;;;;;5034044;28;20191;-82
2022/07/27 05:28:15;;;;;;;0.70;0.70;;;;;;;;;;5033112;28;20216;-82
2022/07/27 05:30:43;;;;;;;1.30;1.23;;;;;;;;;;5033234;28;20216;-82
2022/07/27 05:33:11;;;;;;;0.60;0.60;;;;;;;;;;5046198;28;20198;-82
2022/07/27 05:35:40;;;;;;;1.77;1.67;;;;;;;;;;5032504;28;20232;-83
2022/07/27 05:38:10;;;;;;;0.60;0.60;;;;;;;;;;5035313;28;20258;-83
2022/07/27 05:40:39;;;;;;;0.50;0.50;;;;;;;;;;5044845;28;20195;-82
2022/07/27 05:43:07;;;;;;;0.40;0.40;;;;;;;;;;5044349;28;20293;-83
2022/07/27 05:45:36;;;;;;;0.40;0.40;;;;;;;;;;5035922;28;20209;-83
2022/07/27 05:48:05;;;;;;;0.47;0.47;;;;;;;;;;5043594;28;20218;-83
2022/07/27 05:50:34;;;;;;;0.60;0.53;;;;;;;;;;5036033;28;20218;-83
2022/07/27 05:53:03;;;;;;;0.50;0.50;;;;;;;;;;5032653;28;20204;-83
2022/07/27 05:55:32;;;;;;;0.80;0.80;;;;;;;;;;5034230;28;20210;-83
2022/07/27 05:58:01;;;;;;;1.23;1.13;;;;;;;;;;5040922;28;20253;-83
2022/07/27 06:00:29;;;;;;;0.70;0.70;;;;;;;;;;5053769;28;20204;-83
2022/07/27 06:02:58;;;;;;;0.40;0.40;;;;;;;;;;5052853;28;20293;-83
2022/07/27 06:05:27;;;;;;;0.67;0.67;;;;;;;;;;5039587;28;20224;-83
2022/07/27 06:07:58;;;;;;;5.83;0.97;;;;;;;;;;5033808;28;20225;-83
2022/07/27 06:10:27;;;;;;;0.70;0.70;;;;;;;;;;5033151;28;20203;-83
2022/07/27 06:12:57;;;;;;;1.07;0.70;;;;;;;;;;5051004;28;20218;-83
2022/07/27 06:15:26;;;;;;;1.47;1.47;;;;;;;;;;5041277;28;20210;-83
2022/07/27 06:17:54;;;;;;;0.77;0.47;;;;;;;;;;5047448;28;20192;-84
2022/07/27 06:20:23;;;;;;;0.40;0.40;;;;;;;;;;5049070;28;20210;-83
2022/07/27 06:22:53;;;;;;;0.40;0.40;;;;;;;;;;5031984;28;20290;-83
2022/07/27 06:25:23;;;;;;;0.60;0.60;;;;;;;;;;5074485;28;20243;-83
2022/07/27 06:28:04;;;;;;;1.23;0.57;;;;;;;;;;5088833;28;20224;-83
2022/07/27 06:30:32;;;;;;;0.50;0.50;;;;;;;;;;5073325;28;20205;-83
2022/07/27 06:33:03;;;;;;;0.57;0.57;;;;;;;;;;5072155;28;20208;-82
2022/07/27 06:35:32;;;;;;;1.57;0.50;;;;;;;;;;5072295;28;20229;-83
2022/07/27 06:38:10;;;;;;;0.67;0.67;;;;;;;;;;5055342;28;20243;-82
2022/07/27 06:40:41;;;;;;;4.63;0.73;;;;;;;;;;5073585;28;20202;-82
2022/07/27 06:43:26;;;;;;;0.47;0.47;;;;;;;;;;5071794;28;20287;-82
2022/07/27 06:49:03;;;;;;;9.57;2.47;;;;;;;;;;5090742;28;20271;-83
2022/07/27 06:51:32;;;;;;;1.80;1.00;;;;;;;;;;5075904;28;20193;-83
2022/07/27 06:54:01;;;;;;;1.07;1.07;;;;;;;;;;5075171;28;20189;-82
2022/07/27 06:59:49;;;;;;;0.60;0.60;;;;;;;;;;5095108;28;20231;-83
2022/07/27 07:02:18;;;;;;;0.40;0.40;;;;;;;;;;5079497;28;20208;-83
2022/07/27 07:04:46;;;;;;;1.60;0.80;;;;;;;;;;5074993;28;20202;-83
2022/07/27 07:07:15;;;;;;;1.30;1.23;;;;;;;;;;5075219;28;20208;-82
2022/07/27 07:09:44;;;;;;;0.50;0.50;;;;;;;;;;5075191;28;20195;-83
2022/07/27 07:12:17;;;;;;;0.50;0.50;;;;;;;;;;5089059;28;20197;-83
2022/07/27 07:14:49;;;;;;;0.30;0.30;;;;;;;;;;5075454;28;20220;-78
2022/07/27 07:17:19;;;;;;;0.50;0.50;;;;;;;;;;5074764;28;20203;-83
2022/07/27 07:19:48;;;;;;;0.73;0.73;;;;;;;;;;5074566;28;20209;-83
2022/07/27 07:22:19;;;;;;;0.77;0.77;;;;;;;;;;5083963;28;20222;-83
2022/07/27 07:24:50;;;;;;;0.50;0.50;;;;;;;;;;5074452;28;20245;-83
2022/07/27 07:27:22;;;;;;;0.50;0.50;;;;;;;;;;5074596;28;20201;-83
2022/07/27 07:29:52;;;;;;;0.30;0.30;;;;;;;;;;5075304;28;20300;-83
2022/07/27 07:32:23;;;;;;;0.83;0.80;;;;;;;;;;5074785;28;20287;-83
2022/07/27 07:35:02;;;;;;;2.10;0.73;;;;;;;;;;5075698;28;20233;-83
2022/07/27 07:37:41;;;;;;;5.13;1.40;;;;;;;;;;5074467;28;20297;-83
2022/07/27 07:40:11;;;;;;;1.13;0.80;;;;;;;;;;5076055;28;20205;-83
2022/07/27 07:43:01;;;;;;;0.50;0.50;;;;;;;;;;5074002;28;20200;-84
2022/07/27 07:45:36;;;;;;;1.17;0.47;;;;;;;;;;5057968;28;20258;-83
2022/07/27 07:48:20;;;;;;;0.30;0.30;;;;;;;;;;5074073;28;20252;-83
2022/07/27 07:50:59;;;;;;;2.10;1.50;;;;;;;;;;5074398;28;20217;-83
2022/07/27 07:53:28;;;;;;;2.40;1.57;;;;;;;;;;5074885;28;20237;-83
2022/07/27 07:55:58;;;;;;;0.40;0.40;;;;;;;;;;5075688;28;20230;-83
2022/07/27 07:58:27;;;;;;;0.77;0.77;;;;;;;;;;5082696;28;20245;-83
2022/07/27 08:00:57;;;;;;;1.17;1.17;;;;;;;;;;5075075;28;20205;-82
2022/07/27 08:03:31;;;;;;;0.73;0.73;;;;;;;;;;5073638;28;20209;-83
2022/07/27 08:06:05;;;;;;;0.50;0.50;;;;;;;;;;5074015;28;20292;-83
2022/07/27 08:08:36;;;;;;;1.60;0.80;;;;;;;;;;5073621;28;20247;-83
2022/07/27 08:11:06;;;;;;;0.83;0.80;;;;;;;;;;5075012;28;20200;-83
2022/07/27 08:13:38;;;;;;;1.53;1.43;;;;;;;;;;5074730;28;20212;-83
2022/07/27 08:16:10;;;;;;;0.43;0.43;;;;;;;;;;5073917;28;20208;-84
2022/07/27 08:18:39;;;;;;;12.67;1.03;;;;;;;;;;5083719;28;20221;-84
2022/07/27 08:21:07;;;;;;;0.50;0.50;;;;;;;;;;5095196;28;20193;-83
2022/07/27 08:23:36;;;;;;;2.20;0.50;;;;;;;;;;5084970;28;20206;-83
2022/07/27 08:26:10;;;;;;;0.87;0.70;;;;;;;;;;5086129;28;20268;-83
2022/07/27 08:28:41;;;;;;;0.77;0.77;;;;;;;;;;5073414;28;20216;-83
2022/07/27 08:31:11;;;;;;;0.60;0.60;;;;;;;;;;5073628;28;20194;-83
2022/07/27 08:33:46;;;;;;;2.37;0.93;;;;;;;;;;5073200;28;20266;-83
2022/07/27 08:36:14;;;;;;;0.40;0.40;;;;;;;;;;5073109;28;20226;-83
2022/07/27 08:38:45;;;;;;;0.60;0.60;;;;;;;;;;5073145;28;20247;-83
2022/07/27 08:41:19;;;;;;;0.60;0.60;;;;;;;;;;5075520;28;20206;-84
2022/07/27 08:43:49;;;;;;;0.40;0.40;;;;;;;;;;5073225;28;20193;-83
2022/07/27 08:46:20;;;;;;;1.53;0.73;;;;;;;;;;5083127;28;20236;-83
2022/07/27 08:48:48;;;;;;;0.60;0.60;;;;;;;;;;5090973;28;20223;-82
2022/07/27 08:51:18;;;;;;;0.37;0.37;;;;;;;;;;5078761;28;20193;-83
2022/07/27 08:53:48;;;;;;;0.73;0.73;;;;;;;;;;5090040;28;20213;-84
2022/07/27 08:56:22;;;;;;;0.63;0.63;;;;;;;;;;5074312;28;20200;-83
2022/07/27 08:58:51;;;;;;;0.73;0.73;;;;;;;;;;5084776;28;20193;-82
2022/07/27 09:01:21;;;;;;;0.30;0.30;;;;;;;;;;5081347;28;20284;-83
2022/07/27 09:03:51;;;;;;;0.50;0.50;;;;;;;;;;5089703;28;20201;-83
2022/07/27 09:06:35;;;;;;;0.50;0.50;;;;;;;;;;5072501;28;20198;-83
2022/07/27 09:09:14;;;;;;;0.50;0.50;;;;;;;;;;5066652;28;20214;-83
2022/07/27 09:12:03;;;;;;;0.70;0.70;;;;;;;;;;5052612;28;20209;-83
2022/07/27 09:14:39;;;;;;;0.60;0.60;;;;;;;;;;5071399;28;20227;-84
2022/07/27 09:17:23;;;;;;;0.47;0.47;;;;;;;;;;5077688;28;20197;-83
2022/07/27 09:20:15;;;;;;;1.07;0.63;;;;;;;;;;5052425;28;20195;-83
2022/07/27 09:22:48;;;;;;;0.43;0.43;;;;;;;;;;5054412;28;20206;-83
2022/07/27 09:25:21;;;;;;;0.93;0.90;;;;;;;;;;5063660;28;20535;-83
2022/07/27 09:28:40;;;;;;;0.60;0.60;;;;;;;;;;5052145;28;20206;-83
2022/07/27 09:31:10;;;;;;;0.60;0.60;;;;;;;;;;5052671;28;20286;-83
2022/07/27 09:33:43;;;;;;;0.47;0.47;;;;;;;;;;5060838;28;20194;-84
2022/07/27 09:36:12;;;;;;;3.33;0.70;;;;;;;;;;5073168;28;20222;-84
2022/07/27 09:38:50;;;;;;;2.00;0.90;;;;;;;;;;5052702;28;20190;-84
2022/07/27 09:41:26;;;;;;;0.67;0.50;;;;;;;;;;5059805;28;20218;-83
2022/07/27 09:43:56;;;;;;;0.70;0.70;;;;;;;;;;5066961;28;20200;-83
2022/07/27 09:46:47;;;;;;;0.50;0.50;;;;;;;;;;5062556;28;20214;-82
2022/07/27 09:49:28;;;;;;;0.40;0.40;;;;;;;;;;5058921;28;20215;-83
2022/07/27 09:51:57;;;;;;;1.07;0.80;;;;;;;;;;5069736;28;20226;-83
2022/07/27 09:54:28;;;;;;;0.30;0.30;;;;;;;;;;5066707;28;20247;-83
2022/07/27 09:57:00;;;;;;;0.20;0.20;;;;;;;;;;5053722;28;20229;-83
2022/07/27 09:59:30;;;;;;;3.07;0.83;;;;;;;;;;5058521;28;20287;-83
2022/07/27 10:02:05;;;;;;;0.30;0.30;;;;;;;;;;5073409;28;20253;-82
2022/07/27 10:04:35;;;;;;;0.53;0.50;;;;;;;;;;5052335;28;20291;-83
2022/07/27 10:07:04;;;;;;;1.13;1.00;;;;;;;;;;5052535;28;20205;-82
2022/07/27 10:09:39;;;;;;;0.80;0.80;;;;;;;;;;5058117;28;20221;-84
2022/07/27 10:12:08;;;;;;;0.60;0.60;;;;;;;;;;5060235;28;20203;-83
2022/07/27 10:14:37;;;;;;;0.30;0.30;;;;;;;;;;5052148;28;20201;-83
2022/07/27 10:17:06;;;;;;;0.90;0.90;;;;;;;;;;5064812;28;20210;-83
2022/07/27 10:19:41;;;;;;;0.50;0.50;;;;;;;;;;5071877;28;20200;-83
2022/07/27 10:22:09;;;;;;;1.20;0.60;;;;;;;;;;5068335;28;20222;-82
2022/07/27 10:24:40;;;;;;;0.60;0.60;;;;;;;;;;5059002;28;20291;-83
2022/07/27 10:27:20;;;;;;;6.10;1.03;;;;;;;;;;5066587;28;20211;-83
2022/07/27 10:29:48;;;;;;;0.93;0.73;;;;;;;;;;5077120;28;20215;-83
2022/07/27 10:32:24;;;;;;;0.67;0.60;;;;;;;;;;5077302;28;20208;-82
2022/07/27 10:34:54;;;;;;;0.40;0.40;;;;;;;;;;5057499;28;20238;-83
2022/07/27 10:37:26;;;;;;;0.40;0.40;;;;;;;;;;5062472;28;20209;-82
2022/07/27 10:42:40;;;;;;;2.03;0.90;;;;;;;;;;5062304;28;20202;-82
2022/07/27 10:45:09;;;;;;;0.83;0.67;;;;;;;;;;5062286;28;20222;-82
2022/07/27 10:47:39;;;;;;;1.60;0.53;;;;;;;;;;5070112;28;20207;-82
2022/07/27 10:50:28;;;;;;;0.80;0.80;;;;;;;;;;5069884;28;20210;-82
2022/07/27 10:52:57;;;;;;;5.00;1.17;;;;;;;;;;5066979;28;20198;-83
2022/07/27 10:55:45;;;;;;;0.50;0.50;;;;;;;;;;5057105;28;20214;-83
2022/07/27 10:58:32;;;;;;;7.53;1.53;;;;;;;;;;5065290;28;20198;-83
2022/07/27 11:01:01;;;;;;;0.40;0.40;;;;;;;;;;5070265;28;20193;-82
2022/07/27 11:03:32;;;;;;;0.87;0.63;;;;;;;;;;5066964;28;20197;-82
2022/07/27 11:06:04;;;;;;;0.50;0.50;;;;;;;;;;5057958;28;20295;-82
2022/07/27 11:08:53;;;;;;;0.73;0.73;;;;;;;;;;5056585;28;20229;-83
2022/07/27 11:11:42;;;;;;;3.03;1.60;;;;;;;;;;5055379;28;20210;-83
2022/07/27 11:14:10;;;;;;;2.87;1.10;;;;;;;;;;5071422;28;20254;-82
2022/07/27 11:16:40;;;;;;;3.03;1.30;;;;;;;;;;5067199;28;20194;-83
2022/07/27 11:19:23;;;;;;;4.80;0.87;;;;;;;;;;5057963;28;20198;-82
2022/07/27 11:22:00;;;;;;;0.60;0.60;;;;;;;;;;5071444;28;20198;-83
2022/07/27 11:24:33;;;;;;;0.50;0.50;;;;;;;;;;5067974;28;20322;-82
2022/07/27 11:27:03;;;;;;;0.50;0.50;;;;;;;;;;5054896;28;20204;-83
2022/07/27 11:29:45;;;;;;;2.00;1.80;;;;;;;;;;5054062;28;20269;-82
2022/07/27 11:32:18;;;;;;;2.20;2.00;;;;;;;;;;5055028;28;20204;-83
2022/07/27 11:34:47;;;;;;;1.97;1.00;;;;;;;;;;5059278;28;20231;-84
2022/07/27 11:37:18;;;;;;;0.50;0.50;;;;;;;;;;5071663;28;20209;-84
2022/07/27 11:39:48;;;;;;;0.87;0.70;;;;;;;;;;5067456;28;20200;-84
2022/07/27 11:42:39;;;;;;;0.40;0.40;;;;;;;;;;5063047;28;20197;-83
2022/07/27 11:45:08;;;;;;;0.33;0.33;;;;;;;;;;5071067;28;20213;-83
2022/07/27 11:47:37;;;;;;;0.30;0.30;;;;;;;;;;5072215;28;20215;-83
2022/07/27 11:50:10;;;;;;;2.90;0.50;;;;;;;;;;5055803;28;20291;-84
2022/07/27 11:52:41;;;;;;;1.30;1.03;;;;;;;;;;5054987;28;20202;-84
2022/07/27 11:55:12;;;;;;;0.70;0.70;;;;;;;;;;5054680;28;20285;-83
2022/07/27 11:57:45;;;;;;;0.47;0.47;;;;;;;;;;5075957;28;20204;-83
2022/07/27 12:00:14;;;;;;;1.00;0.90;;;;;;;;;;5061940;28;20226;-83
2022/07/27 12:02:49;;;;;;;0.50;0.50;;;;;;;;;;5054637;28;20202;-83
2022/07/27 12:05:18;;;;;;;0.47;0.47;;;;;;;;;;5055854;28;20204;-84
2022/07/27 12:07:52;;;;;;;0.40;0.40;;;;;;;;;;5054468;28;20189;-83
2022/07/27 12:10:21;;;;;;;0.60;0.60;;;;;;;;;;5065864;28;20219;-83
2022/07/27 12:12:50;;;;;;;0.30;0.30;;;;;;;;;;5060012;28;20227;-83
2022/07/27 12:15:25;;;;;;;1.80;1.60;;;;;;;;;;5064074;28;20248;-82
2022/07/27 12:18:22;;;;;;;0.37;0.30;;;;;;;;;;5054348;28;20239;-84
2022/07/27 12:24:14;;;;;;;1.90;0.87;;;;;;;;;;5061740;28;20213;-82
2022/07/27 12:27:03;;;;;;;0.73;0.47;;;;;;;;;;5065986;28;20208;-82
2022/07/27 12:29:34;;;;;;;1.10;0.70;;;;;;;;;;5072411;28;20291;-82
2022/07/27 12:32:03;;;;;;;0.67;0.60;;;;;;;;;;5059189;28;20216;-83
2022/07/27 12:34:32;;;;;;;0.50;0.50;;;;;;;;;;5068302;28;20232;-83
2022/07/27 12:37:11;;;;;;;0.90;0.90;;;;;;;;;;5060840;28;20204;-82
2022/07/27 12:39:44;;;;;;;3.13;0.90;;;;;;;;;;5075338;28;20213;-83
2022/07/27 12:42:13;;;;;;;0.40;0.40;;;;;;;;;;5070213;28;20190;-83
2022/07/27 12:44:43;;;;;;;0.80;0.80;;;;;;;;;;5073661;28;20191;-83
2022/07/27 12:50:05;;;;;;;0.73;0.73;;;;;;;;;;5054065;28;20216;-83
2022/07/27 12:52:34;;;;;;;0.43;0.43;;;;;;;;;;5069595;28;20198;-83
2022/07/27 12:55:05;;;;;;;0.70;0.50;;;;;;;;;;5054396;28;20206;-84
2022/07/27 12:57:39;;;;;;;0.50;0.50;;;;;;;;;;5075660;28;20267;-83
2022/07/27 13:00:24;;;;;;;0.67;0.67;;;;;;;;;;5073194;28;20203;-84
2022/07/27 13:03:00;;;;;;;0.30;0.30;;;;;;;;;;5073358;28;20252;-84
2022/07/27 13:05:29;;;;;;;1.60;1.13;;;;;;;;;;5059771;28;20229;-84
2022/07/27 13:07:58;;;;;;;0.40;0.40;;;;;;;;;;5055959;28;20236;-84
2022/07/27 13:10:28;;;;;;;0.60;0.60;;;;;;;;;;5053203;28;20201;-84
2022/07/27 13:12:57;;;;;;;9.80;0.90;;;;;;;;;;5071831;28;20300;-83
2022/07/27 13:15:25;;;;;;;0.50;0.50;;;;;;;;;;5077987;28;20206;-83
2022/07/27 13:17:54;;;;;;;0.50;0.50;;;;;;;;;;5070103;28;20200;-84
2022/07/27 13:20:23;;;;;;;0.60;0.60;;;;;;;;;;5073781;28;20194;-83
2022/07/27 13:22:52;;;;;;;0.50;0.50;;;;;;;;;;5072035;28;20199;-83
2022/07/27 13:25:20;;;;;;;0.53;0.53;;;;;;;;;;5062993;28;20246;-83
2022/07/27 13:27:52;;;;;;;12.27;1.17;;;;;;;;;;5053572;28;20211;-83
2022/07/27 13:30:20;;;;;;;3.60;1.53;;;;;;;;;;5063973;28;20249;-83
2022/07/27 13:32:49;;;;;;;1.93;0.80;;;;;;;;;;5052935;28;20223;-84
2022/07/27 13:35:20;;;;;;;1.33;0.77;;;;;;;;;;5066253;28;20227;-83
2022/07/27 13:37:49;;;;;;;6.87;0.80;;;;;;;;;;5053126;28;20241;-84
2022/07/27 13:40:17;;;;;;;0.40;0.40;;;;;;;;;;5055832;28;20204;-84
2022/07/27 13:42:46;;;;;;;0.67;0.67;;;;;;;;;;5062715;28;20269;-83
2022/07/27 13:45:15;;;;;;;3.13;1.10;;;;;;;;;;5088132;28;20202;-83
2022/07/27 13:47:44;;;;;;;0.70;0.70;;;;;;;;;;5052256;28;20206;-84
2022/07/27 13:50:15;;;;;;;3.10;0.90;;;;;;;;;;5066486;28;20220;-83
2022/07/27 13:52:47;;;;;;;1.20;0.73;;;;;;;;;;5069498;28;20218;-83
2022/07/27 13:55:17;;;;;;;0.60;0.60;;;;;;;;;;5056593;28;20209;-83
2022/07/27 13:57:46;;;;;;;0.70;0.70;;;;;;;;;;5056931;28;20197;-84
2022/07/27 14:00:17;;;;;;;1.50;0.60;;;;;;;;;;5057607;28;20212;-84
2022/07/27 14:02:46;;;;;;;0.67;0.60;;;;;;;;;;5070753;28;20227;-84
2022/07/27 14:05:15;;;;;;;0.50;0.50;;;;;;;;;;5056407;28;20229;-84
2022/07/27 14:07:47;;;;;;;3.70;1.27;;;;;;;;;;5074897;28;20191;-84
2022/07/27 14:10:40;;;;;;;0.60;0.60;;;;;;;;;;5065367;28;20196;-85
2022/07/27 14:13:10;;;;;;;0.40;0.40;;;;;;;;;;5057624;28;20221;-85
2022/07/27 14:15:41;;;;;;;0.40;0.40;;;;;;;;;;5057584;28;20201;-84
2022/07/27 14:18:24;;;;;;;0.80;0.73;;;;;;;;;;5056572;28;20208;-84
2022/07/27 14:20:52;;;;;;;0.67;0.67;;;;;;;;;;5056400;28;20211;-84
2022/07/27 14:23:21;;;;;;;0.43;0.43;;;;;;;;;;5076148;28;20249;-84
2022/07/27 14:25:50;;;;;;;1.20;0.40;;;;;;;;;;5062883;28;20263;-84
2022/07/27 14:28:19;;;;;;;0.50;0.50;;;;;;;;;;5062601;28;20213;-85
2022/07/27 14:30:50;;;;;;;1.33;0.40;;;;;;;;;;5077152;28;20209;-81
2022/07/27 14:33:19;;;;;;;1.13;0.50;;;;;;;;;;5058394;28;20230;-81
2022/07/27 14:35:47;;;;;;;1.97;1.10;;;;;;;;;;5057304;28;20229;-85
2022/07/27 14:38:16;;;;;;;7.47;1.03;;;;;;;;;;5069806;28;20223;-85
2022/07/27 14:40:57;;;;;;;0.50;0.50;;;;;;;;;;5055614;28;20205;-85
2022/07/27 14:43:26;;;;;;;0.40;0.40;;;;;;;;;;5071029;28;20224;-84
2022/07/27 14:45:56;;;;;;;0.80;0.80;;;;;;;;;;5055982;28;20301;-85
2022/07/27 14:48:24;;;;;;;2.60;1.00;;;;;;;;;;5056957;28;20210;-84
2022/07/27 14:51:12;;;;;;;0.50;0.50;;;;;;;;;;5055851;28;20234;-85
2022/07/27 14:53:41;;;;;;;2.30;1.17;;;;;;;;;;5069370;28;20211;-84
2022/07/27 14:56:09;;;;;;;1.20;0.60;;;;;;;;;;5062741;28;20219;-84
2022/07/27 14:58:37;;;;;;;1.57;0.80;;;;;;;;;;5078932;28;20214;-84
2022/07/27 15:01:12;;;;;;;0.93;0.87;;;;;;;;;;5058453;28;20228;-84
2022/07/27 15:03:44;;;;;;;5.40;1.30;;;;;;;;;;5056374;28;20215;-84
2022/07/27 15:06:12;;;;;;;1.43;0.83;;;;;;;;;;5074060;28;20210;-84
2022/07/27 15:08:41;;;;;;;1.30;0.80;;;;;;;;;;5072410;28;20322;-84
2022/07/27 15:11:09;;;;;;;0.30;0.30;;;;;;;;;;5073627;28;20203;-84
2022/07/27 15:13:38;;;;;;;0.50;0.50;;;;;;;;;;5075129;28;20246;-82
2022/07/27 15:16:07;;;;;;;1.43;0.83;;;;;;;;;;5072055;28;20212;-82
2022/07/27 15:18:38;;;;;;;1.20;0.67;;;;;;;;;;5061344;28;20212;-83
2022/07/27 15:21:08;;;;;;;0.60;0.60;;;;;;;;;;5055241;28;20207;-83
2022/07/27 15:23:41;;;;;;;0.60;0.60;;;;;;;;;;5064903;28;20292;-82
2022/07/27 15:26:10;;;;;;;0.60;0.60;;;;;;;;;;5074149;28;20238;-83